sensor_id;sensor_type;location;lat;lon;timestamp;pressure;altitude;pressure_sealevel;temperature;humidity
7888;BME280;3989;48.810;9.208;2022-09-09T00:02:20;98448.88;;;14.49;100.00
7888;BME280;3989;48.810;9.208;2022-09-09T00:04:55;98447.44;;;14.46;100.00
7888;BME280;3989;48.810;9.208;2022-09-09T00:07:33;98272.66;;;13.46;100.00
7888;BME280;3989;48.810;9.208;2022-09-09T00:10:15;98291.63;;;13.51;100.00
7888;BME280;3989;48.810;9.208;2022-09-09T00:12:50;98309.94;;;13.67;100.00
7888;BME280;3989;48.810;9.208;2022-09-09T00:15:22;98335.06;;;13.86;100.00
7888;BME280;3989;48.810;9.208;2022-09-09T00:17:55;98433.00;;;14.41;100.00
7888;BME280;3989;48.810;9.208;2022-09-09T00:20:28;98442.50;;;14.43;100.00
7888;BME280;3989;48.810;9.208;2022-09-09T00:23:00;98423.88;;;14.42;100.00
7888;BME280;3989;48.810;9.208;2022-09-09T00:25:35;98426.75;;;14.53;100.00
7888;BME280;3989;48.810;9.208;2022-09-09T00:28:13;98395.19;;;14.42;100.00
7888;BME280;3989;48.810;9.208;2022-09-09T00:30:43;98211.84;;;13.40;100.00
7888;BME280;3989;48.810;9.208;2022-09-09T00:33:14;98384.00;;;14.52;100.00
7888;BME280;3989;48.810;9.208;2022-09-09T00:35:44;98420.59;;;14.91;100.00
7888;BME280;3989;48.810;9.208;2022-09-09T00:38:14;98422.38;;;15.03;100.00
7888;BME280;3989;48.810;9.208;2022-09-09T00:40:46;98418.63;;;15.11;100.00
7888;BME280;3989;48.810;9.208;2022-09-09T00:43:24;98417.53;;;15.18;100.00
7888;BME280;3989;48.810;9.208;2022-09-09T00:46:21;98413.31;;;15.29;100.00
7888;BME280;3989;48.810;9.208;2022-09-09T00:49:02;98412.22;;;15.37;100.00
7888;BME280;3989;48.810;9.208;2022-09-09T00:51:38;98316.66;;;14.85;100.00
7888;BME280;3989;48.810;9.208;2022-09-09T00:54:28;98412.00;;;15.38;100.00
7888;BME280;3989;48.810;9.208;2022-09-09T00:57:11;98423.75;;;15.50;100.00
7888;BME280;3989;48.810;9.208;2022-09-09T00:59:46;98403.50;;;15.41;100.00
7888;BME280;3989;48.810;9.208;2022-09-09T01:02:19;98423.47;;;15.58;100.00
7888;BME280;3989;48.810;9.208;2022-09-09T01:04:49;98389.69;;;15.38;100.00
7888;BME280;3989;48.810;9.208;2022-09-09T01:07:17;98409.03;;;15.53;100.00
7888;BME280;3989;48.810;9.208;2022-09-09T01:09:56;98354.66;;;15.19;100.00
7888;BME280;3989;48.810;9.208;2022-09-09T01:12:26;98425.50;;;15.63;100.00
7888;BME280;3989;48.810;9.208;2022-09-09T01:15:01;98415.78;;;15.62;100.00
7888;BME280;3989;48.810;9.208;2022-09-09T01:17:32;98407.63;;;15.44;100.00
7888;BME280;3989;48.810;9.208;2022-09-09T01:20:08;98423.69;;;15.57;100.00
7888;BME280;3989;48.810;9.208;2022-09-09T01:22:44;98413.16;;;15.55;100.00
7888;BME280;3989;48.810;9.208;2022-09-09T01:25:30;98375.91;;;15.28;100.00
7888;BME280;3989;48.810;9.208;2022-09-09T01:28:01;98403.50;;;15.41;100.00
7888;BME280;3989;48.810;9.208;2022-09-09T01:30:28;98408.47;;;15.44;100.00
7888;BME280;3989;48.810;9.208;2022-09-09T01:32:56;98413.59;;;15.46;100.00
7888;BME280;3989;48.810;9.208;2022-09-09T01:35:39;98441.84;;;15.61;100.00
7888;BME280;3989;48.810;9.208;2022-09-09T01:38:09;98441.03;;;15.61;100.00
7888;BME280;3989;48.810;9.208;2022-09-09T01:40:36;98439.16;;;15.61;100.00
7888;BME280;3989;48.810;9.208;2022-09-09T01:43:04;98410.53;;;15.42;100.00
7888;BME280;3989;48.810;9.208;2022-09-09T01:45:32;98400.88;;;15.35;100.00
7888;BME280;3989;48.810;9.208;2022-09-09T01:47:59;98403.72;;;15.40;100.00
7888;BME280;3989;48.810;9.208;2022-09-09T01:50:27;98427.81;;;15.59;100.00
7888;BME280;3989;48.810;9.208;2022-09-09T01:52:57;98405.53;;;15.46;100.00
7888;BME280;3989;48.810;9.208;2022-09-09T01:55:29;98384.63;;;15.23;100.00
7888;BME280;3989;48.810;9.208;2022-09-09T01:58:02;98260.31;;;14.47;100.00
7888;BME280;3989;48.810;9.208;2022-09-09T02:00:36;98406.34;;;15.21;100.00
7888;BME280;3989;48.810;9.208;2022-09-09T02:03:14;98180.31;;;13.86;100.00
7888;BME280;3989;48.810;9.208;2022-09-09T02:05:49;98357.59;;;14.80;100.00
7888;BME280;3989;48.810;9.208;2022-09-09T02:08:24;98439.28;;;15.10;100.00
7888;BME280;3989;48.810;9.208;2022-09-09T02:10:56;98410.44;;;14.93;100.00
7888;BME280;3989;48.810;9.208;2022-09-09T02:13:29;98419.22;;;14.75;100.00
7888;BME280;3989;48.810;9.208;2022-09-09T02:16:00;98423.38;;;14.71;100.00
7888;BME280;3989;48.810;9.208;2022-09-09T02:18:35;98385.09;;;14.31;100.00
7888;BME280;3989;48.810;9.208;2022-09-09T02:21:02;98434.81;;;14.53;100.00
7888;BME280;3989;48.810;9.208;2022-09-09T02:23:30;98430.69;;;14.44;100.00
7888;BME280;3989;48.810;9.208;2022-09-09T02:25:58;98260.13;;;13.33;100.00
7888;BME280;3989;48.810;9.208;2022-09-09T02:28:26;98414.00;;;14.36;100.00
7888;BME280;3989;48.810;9.208;2022-09-09T02:30:54;98429.66;;;14.52;100.00
7888;BME280;3989;48.810;9.208;2022-09-09T02:33:24;98382.44;;;14.25;100.00
7888;BME280;3989;48.810;9.208;2022-09-09T02:35:53;98428.22;;;14.43;100.00
7888;BME280;3989;48.810;9.208;2022-09-09T02:38:28;98319.03;;;13.66;100.00
7888;BME280;3989;48.810;9.208;2022-09-09T02:40:55;98441.44;;;14.44;100.00
7888;BME280;3989;48.810;9.208;2022-09-09T02:43:23;98431.34;;;14.40;100.00
7888;BME280;3989;48.810;9.208;2022-09-09T02:45:53;98426.38;;;14.30;100.00
7888;BME280;3989;48.810;9.208;2022-09-09T02:48:30;98434.88;;;14.14;100.00
7888;BME280;3989;48.810;9.208;2022-09-09T02:51:03;98423.56;;;14.05;100.00
7888;BME280;3989;48.810;9.208;2022-09-09T02:53:36;98430.56;;;14.00;100.00
7888;BME280;3989;48.810;9.208;2022-09-09T02:56:09;98373.88;;;13.63;100.00
7888;BME280;3989;48.810;9.208;2022-09-09T02:58:40;98361.72;;;13.48;100.00
7888;BME280;3989;48.810;9.208;2022-09-09T03:01:08;98420.91;;;13.73;100.00
7888;BME280;3989;48.810;9.208;2022-09-09T03:03:36;98414.50;;;13.67;100.00
7888;BME280;3989;48.810;9.208;2022-09-09T03:06:03;98427.72;;;13.62;100.00
7888;BME280;3989;48.810;9.208;2022-09-09T03:08:30;98412.88;;;13.59;100.00
7888;BME280;3989;48.810;9.208;2022-09-09T03:10:58;98408.34;;;13.53;100.00
7888;BME280;3989;48.810;9.208;2022-09-09T03:13:26;98400.31;;;13.53;100.00
7888;BME280;3989;48.810;9.208;2022-09-09T03:15:53;98395.56;;;13.49;100.00
7888;BME280;3989;48.810;9.208;2022-09-09T03:18:19;98407.09;;;13.56;100.00
7888;BME280;3989;48.810;9.208;2022-09-09T03:20:47;98344.22;;;13.32;100.00
7888;BME280;3989;48.810;9.208;2022-09-09T03:23:14;98395.53;;;13.75;100.00
7888;BME280;3989;48.810;9.208;2022-09-09T03:25:46;98295.78;;;13.14;100.00
7888;BME280;3989;48.810;9.208;2022-09-09T03:28:13;98255.59;;;13.21;100.00
7888;BME280;3989;48.810;9.208;2022-09-09T03:30:40;98367.59;;;14.09;100.00
7888;BME280;3989;48.810;9.208;2022-09-09T03:33:07;98412.72;;;14.45;100.00
7888;BME280;3989;48.810;9.208;2022-09-09T03:35:33;98388.59;;;14.25;100.00
7888;BME280;3989;48.810;9.208;2022-09-09T03:38:01;98409.84;;;14.46;100.00
7888;BME280;3989;48.810;9.208;2022-09-09T03:40:28;98405.31;;;14.40;100.00
7888;BME280;3989;48.810;9.208;2022-09-09T03:42:56;98389.84;;;14.23;100.00
7888;BME280;3989;48.810;9.208;2022-09-09T03:45:22;98413.81;;;14.37;100.00
7888;BME280;3989;48.810;9.208;2022-09-09T03:47:49;98415.41;;;14.32;100.00
7888;BME280;3989;48.810;9.208;2022-09-09T03:50:16;98414.25;;;14.21;100.00
7888;BME280;3989;48.810;9.208;2022-09-09T03:52:43;98413.19;;;14.22;100.00
7888;BME280;3989;48.810;9.208;2022-09-09T03:55:11;98394.84;;;14.06;100.00
7888;BME280;3989;48.810;9.208;2022-09-09T03:57:38;98408.22;;;14.19;100.00
7888;BME280;3989;48.810;9.208;2022-09-09T04:00:06;98309.97;;;13.54;100.00
7888;BME280;3989;48.810;9.208;2022-09-09T04:02:33;98405.97;;;14.23;100.00
7888;BME280;3989;48.810;9.208;2022-09-09T04:05:00;98389.69;;;14.11;100.00
7888;BME280;3989;48.810;9.208;2022-09-09T04:07:26;98291.84;;;13.49;100.00
7888;BME280;3989;48.810;9.208;2022-09-09T04:09:53;98431.97;;;14.35;100.00
7888;BME280;3989;48.810;9.208;2022-09-09T04:12:22;98406.78;;;14.30;100.00
7888;BME280;3989;48.810;9.208;2022-09-09T04:14:48;98420.19;;;14.43;100.00
7888;BME280;3989;48.810;9.208;2022-09-09T04:17:15;98420.16;;;14.49;100.00
7888;BME280;3989;48.810;9.208;2022-09-09T04:19:42;98371.47;;;14.26;100.00
7888;BME280;3989;48.810;9.208;2022-09-09T04:22:09;98419.47;;;14.60;100.00
7888;BME280;3989;48.810;9.208;2022-09-09T04:24:35;98429.00;;;14.63;100.00
7888;BME280;3989;48.810;9.208;2022-09-09T04:27:02;98358.09;;;14.13;100.00
7888;BME280;3989;48.810;9.208;2022-09-09T04:29:30;98434.97;;;14.65;100.00
7888;BME280;3989;48.810;9.208;2022-09-09T04:31:57;98443.25;;;14.63;100.00
7888;BME280;3989;48.810;9.208;2022-09-09T04:34:23;98442.81;;;14.66;100.00
7888;BME280;3989;48.810;9.208;2022-09-09T04:36:50;98440.75;;;14.68;100.00
7888;BME280;3989;48.810;9.208;2022-09-09T04:39:17;98440.53;;;14.70;100.00
7888;BME280;3989;48.810;9.208;2022-09-09T04:41:44;98442.16;;;14.71;100.00
7888;BME280;3989;48.810;9.208;2022-09-09T04:44:12;98447.34;;;14.73;100.00
7888;BME280;3989;48.810;9.208;2022-09-09T04:46:40;98246.69;;;13.40;100.00
7888;BME280;3989;48.810;9.208;2022-09-09T04:49:07;98441.13;;;14.72;100.00
7888;BME280;3989;48.810;9.208;2022-09-09T04:51:33;98435.38;;;14.62;100.00
7888;BME280;3989;48.810;9.208;2022-09-09T04:54:00;98450.28;;;14.58;100.00
7888;BME280;3989;48.810;9.208;2022-09-09T04:56:27;98450.72;;;14.48;100.00
7888;BME280;3989;48.810;9.208;2022-09-09T04:58:54;98445.78;;;14.39;100.00
7888;BME280;3989;48.810;9.208;2022-09-09T05:01:21;98440.41;;;14.32;100.00
7888;BME280;3989;48.810;9.208;2022-09-09T05:03:50;98436.50;;;14.28;100.00
7888;BME280;3989;48.810;9.208;2022-09-09T05:06:19;98435.31;;;14.17;100.00
7888;BME280;3989;48.810;9.208;2022-09-09T05:08:46;98438.41;;;14.14;100.00
7888;BME280;3989;48.810;9.208;2022-09-09T05:11:18;98419.00;;;13.99;100.00
7888;BME280;3989;48.810;9.208;2022-09-09T05:13:45;98453.25;;;14.17;100.00
7888;BME280;3989;48.810;9.208;2022-09-09T05:16:13;98454.50;;;14.21;100.00
7888;BME280;3989;48.810;9.208;2022-09-09T05:18:40;98458.38;;;14.32;100.00
7888;BME280;3989;48.810;9.208;2022-09-09T05:21:09;98447.25;;;14.35;100.00
7888;BME280;3989;48.810;9.208;2022-09-09T05:23:36;98420.63;;;14.33;100.00
7888;BME280;3989;48.810;9.208;2022-09-09T05:26:04;98394.63;;;14.34;100.00
7888;BME280;3989;48.810;9.208;2022-09-09T05:28:33;98443.16;;;14.77;100.00
7888;BME280;3989;48.810;9.208;2022-09-09T05:31:02;98464.56;;;14.96;100.00
7888;BME280;3989;48.810;9.208;2022-09-09T05:33:31;98452.78;;;14.97;100.00
7888;BME280;3989;48.810;9.208;2022-09-09T05:35:58;98466.13;;;15.17;100.00
7888;BME280;3989;48.810;9.208;2022-09-09T05:38:28;98462.72;;;15.35;100.00
7888;BME280;3989;48.810;9.208;2022-09-09T05:40:55;98450.28;;;15.40;100.00
7888;BME280;3989;48.810;9.208;2022-09-09T05:43:23;98469.81;;;15.60;100.00
7888;BME280;3989;48.810;9.208;2022-09-09T05:45:59;98456.72;;;15.64;100.00
7888;BME280;3989;48.810;9.208;2022-09-09T05:48:28;98454.81;;;15.71;100.00
7888;BME280;3989;48.810;9.208;2022-09-09T05:50:55;98465.53;;;15.77;100.00
7888;BME280;3989;48.810;9.208;2022-09-09T05:53:21;98464.25;;;15.80;100.00
7888;BME280;3989;48.810;9.208;2022-09-09T05:55:49;98473.97;;;15.81;100.00
7888;BME280;3989;48.810;9.208;2022-09-09T05:58:16;98460.72;;;15.86;100.00
7888;BME280;3989;48.810;9.208;2022-09-09T06:00:43;98474.06;;;15.99;100.00
7888;BME280;3989;48.810;9.208;2022-09-09T06:03:11;98464.19;;;16.11;100.00
7888;BME280;3989;48.810;9.208;2022-09-09T06:05:37;98426.66;;;15.98;100.00
7888;BME280;3989;48.810;9.208;2022-09-09T06:08:04;98476.66;;;16.31;100.00
7888;BME280;3989;48.810;9.208;2022-09-09T06:10:31;98471.78;;;16.39;100.00
7888;BME280;3989;48.810;9.208;2022-09-09T06:12:58;98473.97;;;16.49;100.00
7888;BME280;3989;48.810;9.208;2022-09-09T06:15:25;98479.22;;;16.62;100.00
7888;BME280;3989;48.810;9.208;2022-09-09T06:17:54;98473.56;;;16.70;100.00
7888;BME280;3989;48.810;9.208;2022-09-09T06:20:20;98472.41;;;16.77;100.00
7888;BME280;3989;48.810;9.208;2022-09-09T06:22:48;98464.31;;;16.77;100.00
7888;BME280;3989;48.810;9.208;2022-09-09T06:25:14;98478.09;;;16.88;100.00
7888;BME280;3989;48.810;9.208;2022-09-09T06:27:41;98480.34;;;16.91;100.00
7888;BME280;3989;48.810;9.208;2022-09-09T06:30:10;98484.72;;;17.03;100.00
7888;BME280;3989;48.810;9.208;2022-09-09T06:32:37;98482.94;;;17.15;100.00
7888;BME280;3989;48.810;9.208;2022-09-09T06:35:05;98481.78;;;17.23;100.00
7888;BME280;3989;48.810;9.208;2022-09-09T06:37:32;98483.09;;;17.32;100.00
7888;BME280;3989;48.810;9.208;2022-09-09T06:39:59;98474.13;;;17.38;100.00
7888;BME280;3989;48.810;9.208;2022-09-09T06:42:26;98455.34;;;17.31;100.00
7888;BME280;3989;48.810;9.208;2022-09-09T06:44:52;98486.53;;;17.57;100.00
7888;BME280;3989;48.810;9.208;2022-09-09T06:47:20;98475.53;;;17.70;100.00
7888;BME280;3989;48.810;9.208;2022-09-09T06:49:46;98446.53;;;17.66;100.00
7888;BME280;3989;48.810;9.208;2022-09-09T06:52:13;98454.16;;;17.69;100.00
7888;BME280;3989;48.810;9.208;2022-09-09T06:54:39;98488.25;;;18.05;100.00
7888;BME280;3989;48.810;9.208;2022-09-09T06:57:07;98493.41;;;18.18;100.00
7888;BME280;3989;48.810;9.208;2022-09-09T06:59:33;98495.28;;;18.29;100.00
7888;BME280;3989;48.810;9.208;2022-09-09T07:02:00;98496.94;;;18.42;100.00
7888;BME280;3989;48.810;9.208;2022-09-09T07:04:28;98447.97;;;18.26;100.00
7888;BME280;3989;48.810;9.208;2022-09-09T07:06:54;98494.72;;;18.62;100.00
7888;BME280;3989;48.810;9.208;2022-09-09T07:09:21;98490.00;;;18.69;100.00
7888;BME280;3989;48.810;9.208;2022-09-09T07:11:50;98481.28;;;18.78;100.00
7888;BME280;3989;48.810;9.208;2022-09-09T07:14:18;98484.44;;;18.87;100.00
7888;BME280;3989;48.810;9.208;2022-09-09T07:16:45;98489.81;;;18.99;100.00
7888;BME280;3989;48.810;9.208;2022-09-09T07:19:13;98488.38;;;19.08;100.00
7888;BME280;3989;48.810;9.208;2022-09-09T07:21:41;98488.34;;;19.19;100.00
7888;BME280;3989;48.810;9.208;2022-09-09T07:24:08;98477.47;;;19.31;100.00
7888;BME280;3989;48.810;9.208;2022-09-09T07:26:37;98490.16;;;19.42;98.55
7888;BME280;3989;48.810;9.208;2022-09-09T07:29:03;98453.75;;;19.21;99.76
7888;BME280;3989;48.810;9.208;2022-09-09T07:31:32;98492.22;;;19.52;95.43
7888;BME280;3989;48.810;9.208;2022-09-09T07:34:00;98482.56;;;19.56;95.36
7888;BME280;3989;48.810;9.208;2022-09-09T07:36:29;98489.81;;;19.67;94.81
7888;BME280;3989;48.810;9.208;2022-09-09T07:38:59;98485.63;;;19.76;94.26
7888;BME280;3989;48.810;9.208;2022-09-09T07:41:28;98496.88;;;20.01;93.45
7888;BME280;3989;48.810;9.208;2022-09-09T07:43:55;98485.19;;;20.29;89.38
7888;BME280;3989;48.810;9.208;2022-09-09T07:46:24;98477.75;;;20.58;85.70
7888;BME280;3989;48.810;9.208;2022-09-09T07:48:53;98484.19;;;20.95;80.05
7888;BME280;3989;48.810;9.208;2022-09-09T07:51:22;98483.31;;;20.89;78.64
7888;BME280;3989;48.810;9.208;2022-09-09T07:53:52;98490.84;;;20.66;80.74
7888;BME280;3989;48.810;9.208;2022-09-09T07:56:20;98497.13;;;20.33;84.01
7888;BME280;3989;48.810;9.208;2022-09-09T07:58:48;98499.38;;;20.03;88.87
7888;BME280;3989;48.810;9.208;2022-09-09T08:01:17;98502.06;;;20.03;91.48
7888;BME280;3989;48.810;9.208;2022-09-09T08:03:44;98488.31;;;20.26;90.19
7888;BME280;3989;48.810;9.208;2022-09-09T08:06:11;98495.00;;;20.52;85.56
7888;BME280;3989;48.810;9.208;2022-09-09T08:08:39;98480.28;;;20.86;83.35
7888;BME280;3989;48.810;9.208;2022-09-09T08:11:10;98498.47;;;21.29;79.13
7888;BME280;3989;48.810;9.208;2022-09-09T08:13:39;98502.00;;;21.56;70.93
7888;BME280;3989;48.810;9.208;2022-09-09T08:16:07;98500.72;;;21.64;72.83
7888;BME280;3989;48.810;9.208;2022-09-09T08:18:34;98492.53;;;21.59;71.25
7888;BME280;3989;48.810;9.208;2022-09-09T08:21:08;98496.03;;;21.54;72.91
7888;BME280;3989;48.810;9.208;2022-09-09T08:23:37;98496.78;;;21.50;74.67
7888;BME280;3989;48.810;9.208;2022-09-09T08:26:05;98495.56;;;21.35;73.46
7888;BME280;3989;48.810;9.208;2022-09-09T08:28:34;98489.00;;;21.31;76.44
7888;BME280;3989;48.810;9.208;2022-09-09T08:31:13;98503.66;;;21.57;75.94
7888;BME280;3989;48.810;9.208;2022-09-09T08:33:40;98501.81;;;21.89;72.84
7888;BME280;3989;48.810;9.208;2022-09-09T08:36:10;98513.38;;;22.43;64.83
7888;BME280;3989;48.810;9.208;2022-09-09T08:38:37;98505.03;;;22.97;61.21
7888;BME280;3989;48.810;9.208;2022-09-09T08:41:15;98503.31;;;23.43;58.73
7888;BME280;3989;48.810;9.208;2022-09-09T08:43:47;98509.56;;;23.38;57.13
7888;BME280;3989;48.810;9.208;2022-09-09T08:46:23;98496.16;;;23.27;55.18
7888;BME280;3989;48.810;9.208;2022-09-09T08:48:56;98481.97;;;23.15;54.42
7888;BME280;3989;48.810;9.208;2022-09-09T08:51:26;98500.19;;;23.09;55.62
7888;BME280;3989;48.810;9.208;2022-09-09T08:53:54;98498.50;;;22.98;56.29
7888;BME280;3989;48.810;9.208;2022-09-09T08:56:24;98495.72;;;22.88;57.47
7888;BME280;3989;48.810;9.208;2022-09-09T08:58:55;98502.09;;;23.09;56.78
7888;BME280;3989;48.810;9.208;2022-09-09T09:01:53;98497.25;;;23.26;55.94
7888;BME280;3989;48.810;9.208;2022-09-09T09:04:46;98501.16;;;23.45;55.34
7888;BME280;3989;48.810;9.208;2022-09-09T09:07:24;98501.69;;;23.47;53.46
7888;BME280;3989;48.810;9.208;2022-09-09T09:09:57;98485.09;;;23.53;52.52
7888;BME280;3989;48.810;9.208;2022-09-09T09:12:27;98493.00;;;23.65;52.59
7888;BME280;3989;48.810;9.208;2022-09-09T09:14:55;98496.84;;;23.64;50.88
7888;BME280;3989;48.810;9.208;2022-09-09T09:17:25;98510.19;;;23.66;50.65
7888;BME280;3989;48.810;9.208;2022-09-09T09:19:53;98497.81;;;23.28;50.42
7888;BME280;3989;48.810;9.208;2022-09-09T09:22:21;98503.00;;;23.39;50.37
7888;BME280;3989;48.810;9.208;2022-09-09T09:24:52;98507.06;;;23.32;49.92
7888;BME280;3989;48.810;9.208;2022-09-09T09:27:27;98484.34;;;22.96;50.75
7888;BME280;3989;48.810;9.208;2022-09-09T09:29:58;98506.59;;;22.78;52.43
7888;BME280;3989;48.810;9.208;2022-09-09T09:32:30;98511.91;;;22.26;54.23
7888;BME280;3989;48.810;9.208;2022-09-09T09:34:58;98511.81;;;21.84;56.37
7888;BME280;3989;48.810;9.208;2022-09-09T09:37:29;98512.41;;;21.37;57.52
7888;BME280;3989;48.810;9.208;2022-09-09T09:40:07;98522.72;;;20.97;61.71
7888;BME280;3989;48.810;9.208;2022-09-09T09:42:34;98466.09;;;20.40;65.09
7888;BME280;3989;48.810;9.208;2022-09-09T09:45:07;98502.88;;;20.36;64.89
7888;BME280;3989;48.810;9.208;2022-09-09T09:47:36;98500.31;;;20.13;66.80
7888;BME280;3989;48.810;9.208;2022-09-09T09:50:16;98489.50;;;20.13;67.34
7888;BME280;3989;48.810;9.208;2022-09-09T09:52:53;98472.91;;;20.43;65.28
7888;BME280;3989;48.810;9.208;2022-09-09T09:55:21;98469.97;;;20.88;62.07
7888;BME280;3989;48.810;9.208;2022-09-09T09:57:48;98484.63;;;21.30;58.68
7888;BME280;3989;48.810;9.208;2022-09-09T10:00:16;98483.19;;;21.50;53.58
7888;BME280;3989;48.810;9.208;2022-09-09T10:02:45;98477.88;;;21.60;52.55
7888;BME280;3989;48.810;9.208;2022-09-09T10:05:14;98473.09;;;21.72;51.23
7888;BME280;3989;48.810;9.208;2022-09-09T10:07:41;98479.03;;;21.90;50.88
7888;BME280;3989;48.810;9.208;2022-09-09T10:10:15;98479.97;;;22.06;51.06
7888;BME280;3989;48.810;9.208;2022-09-09T10:12:56;98474.56;;;22.11;51.17
7888;BME280;3989;48.810;9.208;2022-09-09T10:15:32;98470.19;;;22.10;51.65
7888;BME280;3989;48.810;9.208;2022-09-09T10:18:13;98469.22;;;22.26;51.86
7888;BME280;3989;48.810;9.208;2022-09-09T10:20:46;98461.44;;;22.40;51.86
7888;BME280;3989;48.810;9.208;2022-09-09T10:23:32;98461.25;;;22.52;52.92
7888;BME280;3989;48.810;9.208;2022-09-09T10:26:16;98407.38;;;22.48;52.97
7888;BME280;3989;48.810;9.208;2022-09-09T10:31:45;98448.44;;;23.04;52.90
7888;BME280;3989;48.810;9.208;2022-09-09T10:34:33;98436.75;;;23.14;52.64
7888;BME280;3989;48.810;9.208;2022-09-09T10:37:04;98438.81;;;23.48;50.62
7888;BME280;3989;48.810;9.208;2022-09-09T10:39:36;98417.56;;;23.81;49.46
7888;BME280;3989;48.810;9.208;2022-09-09T10:42:07;98454.91;;;24.36;48.10
7888;BME280;3989;48.810;9.208;2022-09-09T10:44:56;98398.47;;;24.21;49.02
7888;BME280;3989;48.810;9.208;2022-09-09T10:47:41;98414.22;;;24.44;48.87
7888;BME280;3989;48.810;9.208;2022-09-09T10:50:29;98436.88;;;24.30;49.45
7888;BME280;3989;48.810;9.208;2022-09-09T10:53:08;98439.09;;;24.18;50.29
7888;BME280;3989;48.810;9.208;2022-09-09T10:55:40;98442.09;;;24.26;49.97
7888;BME280;3989;48.810;9.208;2022-09-09T10:58:13;98445.28;;;24.64;49.10
7888;BME280;3989;48.810;9.208;2022-09-09T11:00:43;98458.09;;;24.68;49.64
7888;BME280;3989;48.810;9.208;2022-09-09T11:03:17;98437.63;;;24.66;49.26
7888;BME280;3989;48.810;9.208;2022-09-09T11:05:49;98444.16;;;24.70;49.39
7888;BME280;3989;48.810;9.208;2022-09-09T11:08:19;98453.09;;;25.00;49.12
7888;BME280;3989;48.810;9.208;2022-09-09T11:10:51;98448.38;;;25.11;47.77
7888;BME280;3989;48.810;9.208;2022-09-09T11:13:26;98444.44;;;24.63;49.52
7888;BME280;3989;48.810;9.208;2022-09-09T11:16:01;98451.63;;;23.98;50.38
7888;BME280;3989;48.810;9.208;2022-09-09T11:18:31;98476.81;;;23.23;49.20
7888;BME280;3989;48.810;9.208;2022-09-09T11:21:17;98439.50;;;22.10;50.16
7888;BME280;3989;48.810;9.208;2022-09-09T11:23:49;98473.66;;;22.01;50.56
7888;BME280;3989;48.810;9.208;2022-09-09T11:26:30;98480.66;;;21.65;51.91
7888;BME280;3989;48.810;9.208;2022-09-09T11:31:59;98480.53;;;21.06;54.17
7888;BME280;3989;48.810;9.208;2022-09-09T11:34:39;98480.47;;;20.79;55.85
7888;BME280;3989;48.810;9.208;2022-09-09T11:40:17;98500.09;;;21.08;55.02
7888;BME280;3989;48.810;9.208;2022-09-09T11:42:45;98498.59;;;21.17;54.88
7888;BME280;3989;48.810;9.208;2022-09-09T11:45:24;98495.47;;;21.30;53.89
7888;BME280;3989;48.810;9.208;2022-09-09T11:47:53;98507.63;;;21.50;53.83
7888;BME280;3989;48.810;9.208;2022-09-09T11:50:35;98505.00;;;21.55;53.27
7888;BME280;3989;48.810;9.208;2022-09-09T11:53:15;98502.50;;;21.53;53.13
7888;BME280;3989;48.810;9.208;2022-09-09T11:55:46;98493.00;;;21.51;53.88
7888;BME280;3989;48.810;9.208;2022-09-09T11:58:16;98502.94;;;21.67;53.97
7888;BME280;3989;48.810;9.208;2022-09-09T12:00:45;98426.78;;;21.52;52.67
7888;BME280;3989;48.810;9.208;2022-09-09T12:03:38;98493.72;;;22.31;51.39
7888;BME280;3989;48.810;9.208;2022-09-09T12:06:12;98475.81;;;22.35;50.27
7888;BME280;3989;48.810;9.208;2022-09-09T12:08:43;98378.41;;;21.85;49.07
7888;BME280;3989;48.810;9.208;2022-09-09T12:11:11;98456.81;;;22.40;47.61
7888;BME280;3989;48.810;9.208;2022-09-09T12:13:37;98484.47;;;22.69;47.53
7888;BME280;3989;48.810;9.208;2022-09-09T12:16:05;98420.94;;;22.95;46.83
7888;BME280;3989;48.810;9.208;2022-09-09T12:18:33;98488.91;;;23.47;45.83
7888;BME280;3989;48.810;9.208;2022-09-09T12:21:07;98460.75;;;23.22;46.31
7888;BME280;3989;48.810;9.208;2022-09-09T12:23:45;98477.28;;;23.00;46.86
7888;BME280;3989;48.810;9.208;2022-09-09T12:26:30;98337.91;;;22.16;47.43
7888;BME280;3989;48.810;9.208;2022-09-09T12:29:06;98464.19;;;22.92;46.11
7888;BME280;3989;48.810;9.208;2022-09-09T12:31:41;98454.03;;;22.72;46.18
7888;BME280;3989;48.810;9.208;2022-09-09T12:34:15;98477.88;;;22.65;47.31
7888;BME280;3989;48.810;9.208;2022-09-09T12:36:43;98380.56;;;22.15;47.36
7888;BME280;3989;48.810;9.208;2022-09-09T12:39:19;98427.44;;;22.42;46.12
7888;BME280;3989;48.810;9.208;2022-09-09T12:41:52;98349.88;;;21.83;46.24
7888;BME280;3989;48.810;9.208;2022-09-09T12:44:23;98466.16;;;22.55;45.17
7888;BME280;3989;48.810;9.208;2022-09-09T12:46:51;98395.03;;;22.26;44.97
7888;BME280;3989;48.810;9.208;2022-09-09T12:49:30;98419.91;;;22.55;44.21
7888;BME280;3989;48.810;9.208;2022-09-09T12:52:01;98428.59;;;22.52;44.25
7888;BME280;3989;48.810;9.208;2022-09-09T12:54:31;98436.78;;;22.52;44.60
7888;BME280;3989;48.810;9.208;2022-09-09T12:56:58;98346.94;;;22.36;44.91
7888;BME280;3989;48.810;9.208;2022-09-09T12:59:30;98329.78;;;22.93;43.84
7888;BME280;3989;48.810;9.208;2022-09-09T13:02:02;98460.34;;;23.85;43.76
7888;BME280;3989;48.810;9.208;2022-09-09T13:04:29;98293.56;;;22.92;43.69
7888;BME280;3989;48.810;9.208;2022-09-09T13:07:05;98399.59;;;23.80;43.38
7888;BME280;3989;48.810;9.208;2022-09-09T13:09:38;98437.44;;;24.01;43.38
7888;BME280;3989;48.810;9.208;2022-09-09T13:12:06;98441.25;;;24.05;43.10
7888;BME280;3989;48.810;9.208;2022-09-09T13:14:38;98429.50;;;24.50;42.26
7888;BME280;3989;48.810;9.208;2022-09-09T13:17:06;98434.28;;;24.94;41.43
7888;BME280;3989;48.810;9.208;2022-09-09T13:19:44;98440.75;;;25.08;41.18
7888;BME280;3989;48.810;9.208;2022-09-09T13:22:12;98419.78;;;24.98;41.74
7888;BME280;3989;48.810;9.208;2022-09-09T13:24:41;98427.75;;;24.85;42.14
7888;BME280;3989;48.810;9.208;2022-09-09T13:27:24;98430.47;;;24.80;42.24
7888;BME280;3989;48.810;9.208;2022-09-09T13:29:53;98437.63;;;24.66;42.81
7888;BME280;3989;48.810;9.208;2022-09-09T13:32:23;98419.94;;;24.58;42.70
7888;BME280;3989;48.810;9.208;2022-09-09T13:34:51;98428.38;;;24.62;42.81
7888;BME280;3989;48.810;9.208;2022-09-09T13:37:23;98302.63;;;23.48;43.30
7888;BME280;3989;48.810;9.208;2022-09-09T13:39:53;98420.84;;;24.13;44.04
7888;BME280;3989;48.810;9.208;2022-09-09T13:42:24;98419.47;;;24.16;43.61
7888;BME280;3989;48.810;9.208;2022-09-09T13:44:52;98357.34;;;23.82;43.77